sensor_id;sensor_type;location;lat;lon;timestamp;P1;durP1;ratioP1;P2;durP2;ratioP2
2438;SDS011;14509;47.992;7.848;2023-11-19T00:01:18;1.33;;;0.60;;
2438;SDS011;14509;47.992;7.848;2023-11-19T00:03:20;1.20;;;0.67;;
2438;SDS011;14509;47.992;7.848;2023-11-19T00:05:22;5.70;;;0.67;;
2438;SDS011;14509;47.992;7.848;2023-11-19T00:07:23;0.87;;;0.50;;
2438;SDS011;14509;47.992;7.848;2023-11-19T00:09:25;5.70;;;0.83;;
2438;SDS011;14509;47.992;7.848;2023-11-19T00:11:27;2.20;;;0.83;;
2438;SDS011;14509;47.992;7.848;2023-11-19T00:13:30;1.10;;;0.60;;
2438;SDS011;14509;47.992;7.848;2023-11-19T00:15:32;1.37;;;1.27;;
2438;SDS011;14509;47.992;7.848;2023-11-19T00:17:35;0.93;;;0.40;;
2438;SDS011;14509;47.992;7.848;2023-11-19T00:19:37;1.20;;;0.90;;
2438;SDS011;14509;47.992;7.848;2023-11-19T00:21:39;1.10;;;0.87;;
2438;SDS011;14509;47.992;7.848;2023-11-19T00:23:41;1.07;;;0.60;;
2438;SDS011;14509;47.992;7.848;2023-11-19T00:25:43;1.37;;;0.50;;
2438;SDS011;14509;47.992;7.848;2023-11-19T00:27:45;2.00;;;0.57;;
2438;SDS011;14509;47.992;7.848;2023-11-19T00:29:49;0.87;;;0.60;;
2438;SDS011;14509;47.992;7.848;2023-11-19T00:31:51;1.20;;;0.70;;
2438;SDS011;14509;47.992;7.848;2023-11-19T00:33:53;1.37;;;0.60;;
2438;SDS011;14509;47.992;7.848;2023-11-19T00:35:55;0.97;;;0.67;;
2438;SDS011;14509;47.992;7.848;2023-11-19T00:37:57;0.70;;;0.70;;
2438;SDS011;14509;47.992;7.848;2023-11-19T00:39:59;1.20;;;1.00;;
2438;SDS011;14509;47.992;7.848;2023-11-19T00:42:00;1.00;;;0.70;;
2438;SDS011;14509;47.992;7.848;2023-11-19T00:44:02;0.90;;;0.70;;
2438;SDS011;14509;47.992;7.848;2023-11-19T00:46:08;0.70;;;0.47;;
2438;SDS011;14509;47.992;7.848;2023-11-19T00:48:11;4.23;;;1.23;;
2438;SDS011;14509;47.992;7.848;2023-11-19T00:50:13;0.90;;;0.67;;
2438;SDS011;14509;47.992;7.848;2023-11-19T00:52:14;1.13;;;0.80;;
2438;SDS011;14509;47.992;7.848;2023-11-19T00:54:16;0.60;;;0.50;;
2438;SDS011;14509;47.992;7.848;2023-11-19T00:56:18;1.63;;;0.47;;
2438;SDS011;14509;47.992;7.848;2023-11-19T00:58:20;0.73;;;0.60;;
2438;SDS011;14509;47.992;7.848;2023-11-19T01:00:22;1.00;;;0.90;;
2438;SDS011;14509;47.992;7.848;2023-11-19T01:02:28;0.73;;;0.60;;
2438;SDS011;14509;47.992;7.848;2023-11-19T01:04:32;1.03;;;0.60;;
2438;SDS011;14509;47.992;7.848;2023-11-19T01:06:34;1.10;;;0.70;;
2438;SDS011;14509;47.992;7.848;2023-11-19T01:08:36;1.33;;;0.57;;
2438;SDS011;14509;47.992;7.848;2023-11-19T01:10:38;1.00;;;0.63;;
2438;SDS011;14509;47.992;7.848;2023-11-19T01:12:40;1.53;;;0.70;;
2438;SDS011;14509;47.992;7.848;2023-11-19T01:14:41;0.50;;;0.50;;
2438;SDS011;14509;47.992;7.848;2023-11-19T01:16:43;1.07;;;0.60;;
2438;SDS011;14509;47.992;7.848;2023-11-19T01:18:46;2.97;;;0.80;;
2438;SDS011;14509;47.992;7.848;2023-11-19T01:20:48;1.57;;;0.60;;
2438;SDS011;14509;47.992;7.848;2023-11-19T01:22:50;2.50;;;0.50;;
2438;SDS011;14509;47.992;7.848;2023-11-19T01:24:52;2.40;;;0.60;;
2438;SDS011;14509;47.992;7.848;2023-11-19T01:26:54;2.53;;;0.73;;
2438;SDS011;14509;47.992;7.848;2023-11-19T01:28:57;0.50;;;0.40;;
2438;SDS011;14509;47.992;7.848;2023-11-19T01:31:01;1.40;;;0.63;;
2438;SDS011;14509;47.992;7.848;2023-11-19T01:33:04;0.57;;;0.40;;
2438;SDS011;14509;47.992;7.848;2023-11-19T01:35:09;1.10;;;0.80;;
2438;SDS011;14509;47.992;7.848;2023-11-19T01:37:11;1.70;;;0.70;;
2438;SDS011;14509;47.992;7.848;2023-11-19T01:39:14;1.40;;;0.50;;
2438;SDS011;14509;47.992;7.848;2023-11-19T01:41:17;1.23;;;0.83;;
2438;SDS011;14509;47.992;7.848;2023-11-19T01:43:32;1.47;;;0.50;;
2438;SDS011;14509;47.992;7.848;2023-11-19T01:45:35;4.63;;;0.63;;
2438;SDS011;14509;47.992;7.848;2023-11-19T01:47:37;0.70;;;0.50;;
2438;SDS011;14509;47.992;7.848;2023-11-19T01:49:41;1.00;;;0.70;;
2438;SDS011;14509;47.992;7.848;2023-11-19T01:51:44;0.80;;;0.50;;
2438;SDS011;14509;47.992;7.848;2023-11-19T01:53:46;1.13;;;0.47;;
2438;SDS011;14509;47.992;7.848;2023-11-19T01:55:49;0.97;;;0.60;;
2438;SDS011;14509;47.992;7.848;2023-11-19T01:57:52;0.80;;;0.53;;
2438;SDS011;14509;47.992;7.848;2023-11-19T01:59:57;2.93;;;1.03;;
2438;SDS011;14509;47.992;7.848;2023-11-19T02:02:15;1.33;;;1.10;;
2438;SDS011;14509;47.992;7.848;2023-11-19T02:04:49;3.23;;;1.23;;
2438;SDS011;14509;47.992;7.848;2023-11-19T02:07:07;2.93;;;1.20;;
2438;SDS011;14509;47.992;7.848;2023-11-19T02:09:14;1.90;;;1.23;;
2438;SDS011;14509;47.992;7.848;2023-11-19T02:11:19;4.53;;;0.87;;
2438;SDS011;14509;47.992;7.848;2023-11-19T02:13:24;2.30;;;1.30;;
2438;SDS011;14509;47.992;7.848;2023-11-19T02:15:27;1.97;;;0.80;;
2438;SDS011;14509;47.992;7.848;2023-11-19T02:17:28;2.10;;;0.80;;
2438;SDS011;14509;47.992;7.848;2023-11-19T02:19:31;1.43;;;1.00;;
2438;SDS011;14509;47.992;7.848;2023-11-19T02:21:34;1.47;;;1.10;;
2438;SDS011;14509;47.992;7.848;2023-11-19T02:23:37;1.60;;;1.13;;
2438;SDS011;14509;47.992;7.848;2023-11-19T02:25:39;2.27;;;1.03;;
2438;SDS011;14509;47.992;7.848;2023-11-19T02:27:47;1.33;;;1.23;;
2438;SDS011;14509;47.992;7.848;2023-11-19T02:29:55;1.77;;;1.20;;
2438;SDS011;14509;47.992;7.848;2023-11-19T02:31:57;1.43;;;1.20;;
2438;SDS011;14509;47.992;7.848;2023-11-19T02:34:00;2.83;;;1.33;;
2438;SDS011;14509;47.992;7.848;2023-11-19T02:36:02;1.97;;;1.80;;
2438;SDS011;14509;47.992;7.848;2023-11-19T02:38:05;1.77;;;1.37;;
2438;SDS011;14509;47.992;7.848;2023-11-19T02:40:07;1.30;;;1.10;;
2438;SDS011;14509;47.992;7.848;2023-11-19T02:42:10;1.77;;;1.50;;
2438;SDS011;14509;47.992;7.848;2023-11-19T02:44:15;1.57;;;0.90;;
2438;SDS011;14509;47.992;7.848;2023-11-19T02:46:17;1.43;;;1.13;;
2438;SDS011;14509;47.992;7.848;2023-11-19T02:48:20;1.43;;;1.33;;
2438;SDS011;14509;47.992;7.848;2023-11-19T02:50:21;5.53;;;1.10;;
2438;SDS011;14509;47.992;7.848;2023-11-19T02:52:26;2.50;;;1.30;;
2438;SDS011;14509;47.992;7.848;2023-11-19T02:54:28;1.00;;;0.90;;
2438;SDS011;14509;47.992;7.848;2023-11-19T02:56:30;1.40;;;1.20;;
2438;SDS011;14509;47.992;7.848;2023-11-19T02:58:36;1.10;;;0.90;;
2438;SDS011;14509;47.992;7.848;2023-11-19T03:00:41;3.03;;;1.10;;
2438;SDS011;14509;47.992;7.848;2023-11-19T03:02:52;1.30;;;1.20;;
2438;SDS011;14509;47.992;7.848;2023-11-19T03:04:59;2.80;;;1.43;;
2438;SDS011;14509;47.992;7.848;2023-11-19T03:07:02;1.00;;;0.90;;
2438;SDS011;14509;47.992;7.848;2023-11-19T03:09:05;3.30;;;1.20;;
2438;SDS011;14509;47.992;7.848;2023-11-19T03:11:10;2.20;;;1.43;;
2438;SDS011;14509;47.992;7.848;2023-11-19T03:13:13;1.80;;;1.27;;
2438;SDS011;14509;47.992;7.848;2023-11-19T03:15:15;1.13;;;1.03;;
2438;SDS011;14509;47.992;7.848;2023-11-19T03:17:19;1.47;;;1.10;;
2438;SDS011;14509;47.992;7.848;2023-11-19T03:19:20;2.07;;;1.30;;
2438;SDS011;14509;47.992;7.848;2023-11-19T03:21:26;1.90;;;1.40;;
2438;SDS011;14509;47.992;7.848;2023-11-19T03:23:29;2.20;;;1.50;;
2438;SDS011;14509;47.992;7.848;2023-11-19T03:25:31;1.30;;;0.90;;
2438;SDS011;14509;47.992;7.848;2023-11-19T03:27:35;1.50;;;1.20;;
2438;SDS011;14509;47.992;7.848;2023-11-19T03:29:38;8.23;;;1.10;;
2438;SDS011;14509;47.992;7.848;2023-11-19T03:31:41;1.57;;;1.30;;
2438;SDS011;14509;47.992;7.848;2023-11-19T03:33:46;0.77;;;0.77;;
2438;SDS011;14509;47.992;7.848;2023-11-19T03:35:48;1.30;;;1.10;;
2438;SDS011;14509;47.992;7.848;2023-11-19T03:37:49;1.07;;;0.83;;
2438;SDS011;14509;47.992;7.848;2023-11-19T03:39:51;1.50;;;0.70;;
2438;SDS011;14509;47.992;7.848;2023-11-19T03:41:55;0.70;;;0.60;;
2438;SDS011;14509;47.992;7.848;2023-11-19T03:43:57;0.93;;;0.80;;
2438;SDS011;14509;47.992;7.848;2023-11-19T03:45:59;2.10;;;0.97;;
2438;SDS011;14509;47.992;7.848;2023-11-19T03:48:01;0.90;;;0.67;;
2438;SDS011;14509;47.992;7.848;2023-11-19T03:50:06;0.70;;;0.50;;
2438;SDS011;14509;47.992;7.848;2023-11-19T03:52:09;1.53;;;1.00;;
2438;SDS011;14509;47.992;7.848;2023-11-19T03:54:11;1.97;;;1.20;;
2438;SDS011;14509;47.992;7.848;2023-11-19T03:56:13;1.77;;;0.57;;
2438;SDS011;14509;47.992;7.848;2023-11-19T03:58:14;1.33;;;0.70;;
2438;SDS011;14509;47.992;7.848;2023-11-19T04:00:17;0.80;;;0.80;;
2438;SDS011;14509;47.992;7.848;2023-11-19T04:02:21;0.70;;;0.70;;
2438;SDS011;14509;47.992;7.848;2023-11-19T04:04:22;1.73;;;0.80;;
2438;SDS011;14509;47.992;7.848;2023-11-19T04:06:25;1.10;;;1.00;;
2438;SDS011;14509;47.992;7.848;2023-11-19T04:08:28;1.13;;;0.80;;
2438;SDS011;14509;47.992;7.848;2023-11-19T04:10:30;1.37;;;0.80;;
2438;SDS011;14509;47.992;7.848;2023-11-19T04:12:32;1.23;;;0.70;;
2438;SDS011;14509;47.992;7.848;2023-11-19T04:14:33;0.60;;;0.53;;
2438;SDS011;14509;47.992;7.848;2023-11-19T04:16:35;1.00;;;0.70;;
2438;SDS011;14509;47.992;7.848;2023-11-19T04:18:37;0.50;;;0.50;;
2438;SDS011;14509;47.992;7.848;2023-11-19T04:20:39;1.13;;;0.87;;
2438;SDS011;14509;47.992;7.848;2023-11-19T04:22:43;1.70;;;0.60;;
2438;SDS011;14509;47.992;7.848;2023-11-19T04:24:46;1.37;;;0.80;;
2438;SDS011;14509;47.992;7.848;2023-11-19T04:26:47;0.70;;;0.53;;
2438;SDS011;14509;47.992;7.848;2023-11-19T04:28:49;1.37;;;0.70;;
2438;SDS011;14509;47.992;7.848;2023-11-19T04:30:54;0.97;;;0.60;;
2438;SDS011;14509;47.992;7.848;2023-11-19T04:32:56;1.20;;;0.57;;
2438;SDS011;14509;47.992;7.848;2023-11-19T04:34:57;1.43;;;0.60;;
2438;SDS011;14509;47.992;7.848;2023-11-19T04:36:59;0.50;;;0.40;;
2438;SDS011;14509;47.992;7.848;2023-11-19T04:39:05;0.60;;;0.43;;
2438;SDS011;14509;47.992;7.848;2023-11-19T04:41:09;0.60;;;0.40;;
2438;SDS011;14509;47.992;7.848;2023-11-19T04:43:11;1.23;;;0.87;;
2438;SDS011;14509;47.992;7.848;2023-11-19T04:45:14;0.50;;;0.40;;
2438;SDS011;14509;47.992;7.848;2023-11-19T04:47:16;0.80;;;0.60;;
2438;SDS011;14509;47.992;7.848;2023-11-19T04:49:18;0.80;;;0.40;;
2438;SDS011;14509;47.992;7.848;2023-11-19T04:51:20;0.63;;;0.37;;
2438;SDS011;14509;47.992;7.848;2023-11-19T04:53:22;2.20;;;0.60;;
2438;SDS011;14509;47.992;7.848;2023-11-19T04:55:25;0.87;;;0.30;;
2438;SDS011;14509;47.992;7.848;2023-11-19T04:57:27;0.50;;;0.40;;
2438;SDS011;14509;47.992;7.848;2023-11-19T04:59:28;0.47;;;0.33;;
2438;SDS011;14509;47.992;7.848;2023-11-19T05:01:29;0.50;;;0.30;;
2438;SDS011;14509;47.992;7.848;2023-11-19T05:03:31;0.50;;;0.40;;
2438;SDS011;14509;47.992;7.848;2023-11-19T05:05:32;0.60;;;0.40;;
2438;SDS011;14509;47.992;7.848;2023-11-19T05:07:34;0.50;;;0.40;;
2438;SDS011;14509;47.992;7.848;2023-11-19T05:09:35;0.70;;;0.40;;
2438;SDS011;14509;47.992;7.848;2023-11-19T05:11:38;1.20;;;0.30;;
2438;SDS011;14509;47.992;7.848;2023-11-19T05:13:41;0.40;;;0.30;;
2438;SDS011;14509;47.992;7.848;2023-11-19T05:15:45;0.70;;;0.57;;
2438;SDS011;14509;47.992;7.848;2023-11-19T05:17:47;0.40;;;0.30;;
2438;SDS011;14509;47.992;7.848;2023-11-19T05:19:49;0.60;;;0.40;;
2438;SDS011;14509;47.992;7.848;2023-11-19T05:21:51;0.50;;;0.37;;
2438;SDS011;14509;47.992;7.848;2023-11-19T05:23:53;0.40;;;0.30;;
2438;SDS011;14509;47.992;7.848;2023-11-19T05:25:54;0.67;;;0.50;;
2438;SDS011;14509;47.992;7.848;2023-11-19T05:27:59;1.33;;;0.40;;
2438;SDS011;14509;47.992;7.848;2023-11-19T05:30:02;0.50;;;0.30;;
2438;SDS011;14509;47.992;7.848;2023-11-19T05:32:06;0.50;;;0.30;;
2438;SDS011;14509;47.992;7.848;2023-11-19T05:34:08;0.50;;;0.40;;
2438;SDS011;14509;47.992;7.848;2023-11-19T05:36:11;0.60;;;0.40;;
2438;SDS011;14509;47.992;7.848;2023-11-19T05:38:12;0.70;;;0.47;;
2438;SDS011;14509;47.992;7.848;2023-11-19T05:40:14;0.40;;;0.30;;
2438;SDS011;14509;47.992;7.848;2023-11-19T05:42:17;0.50;;;0.30;;
2438;SDS011;14509;47.992;7.848;2023-11-19T05:44:21;0.97;;;0.70;;
2438;SDS011;14509;47.992;7.848;2023-11-19T05:46:23;0.50;;;0.30;;
2438;SDS011;14509;47.992;7.848;2023-11-19T05:48:25;0.40;;;0.30;;
2438;SDS011;14509;47.992;7.848;2023-11-19T05:50:29;0.40;;;0.30;;
2438;SDS011;14509;47.992;7.848;2023-11-19T05:52:31;1.47;;;0.40;;
2438;SDS011;14509;47.992;7.848;2023-11-19T05:54:33;0.50;;;0.30;;
2438;SDS011;14509;47.992;7.848;2023-11-19T05:56:37;0.90;;;0.50;;
2438;SDS011;14509;47.992;7.848;2023-11-19T05:58:40;0.67;;;0.43;;
2438;SDS011;14509;47.992;7.848;2023-11-19T06:00:46;0.40;;;0.30;;
2438;SDS011;14509;47.992;7.848;2023-11-19T06:02:51;0.50;;;0.37;;
2438;SDS011;14509;47.992;7.848;2023-11-19T06:04:53;0.50;;;0.40;;
2438;SDS011;14509;47.992;7.848;2023-11-19T06:06:56;0.77;;;0.40;;
2438;SDS011;14509;47.992;7.848;2023-11-19T06:08:58;0.50;;;0.40;;
2438;SDS011;14509;47.992;7.848;2023-11-19T06:11:02;1.43;;;0.40;;
2438;SDS011;14509;47.992;7.848;2023-11-19T06:13:05;0.50;;;0.30;;
2438;SDS011;14509;47.992;7.848;2023-11-19T06:15:07;0.50;;;0.20;;
2438;SDS011;14509;47.992;7.848;2023-11-19T06:17:11;0.70;;;0.40;;
2438;SDS011;14509;47.992;7.848;2023-11-19T06:19:13;0.40;;;0.27;;
2438;SDS011;14509;47.992;7.848;2023-11-19T06:21:16;0.60;;;0.33;;
2438;SDS011;14509;47.992;7.848;2023-11-19T06:23:18;0.50;;;0.30;;
2438;SDS011;14509;47.992;7.848;2023-11-19T06:25:21;0.50;;;0.30;;
2438;SDS011;14509;47.992;7.848;2023-11-19T06:27:24;0.60;;;0.40;;
2438;SDS011;14509;47.992;7.848;2023-11-19T06:29:27;0.60;;;0.43;;
2438;SDS011;14509;47.992;7.848;2023-11-19T06:31:29;1.67;;;0.40;;
2438;SDS011;14509;47.992;7.848;2023-11-19T06:33:33;1.63;;;0.40;;
2438;SDS011;14509;47.992;7.848;2023-11-19T06:35:36;0.93;;;0.40;;
2438;SDS011;14509;47.992;7.848;2023-11-19T06:37:38;0.50;;;0.30;;
2438;SDS011;14509;47.992;7.848;2023-11-19T06:39:41;1.53;;;0.60;;
2438;SDS011;14509;47.992;7.848;2023-11-19T06:41:46;0.80;;;0.40;;
2438;SDS011;14509;47.992;7.848;2023-11-19T06:43:52;0.67;;;0.50;;
2438;SDS011;14509;47.992;7.848;2023-11-19T06:46:36;0.50;;;0.30;;
2438;SDS011;14509;47.992;7.848;2023-11-19T06:48:42;0.60;;;0.47;;
2438;SDS011;14509;47.992;7.848;2023-11-19T06:50:45;0.40;;;0.30;;
2438;SDS011;14509;47.992;7.848;2023-11-19T06:52:47;1.57;;;0.50;;
2438;SDS011;14509;47.992;7.848;2023-11-19T06:54:50;1.33;;;0.37;;
2438;SDS011;14509;47.992;7.848;2023-11-19T06:56:51;0.60;;;0.40;;
2438;SDS011;14509;47.992;7.848;2023-11-19T06:58:54;0.50;;;0.30;;
2438;SDS011;14509;47.992;7.848;2023-11-19T07:01:01;1.50;;;0.37;;
2438;SDS011;14509;47.992;7.848;2023-11-19T07:03:03;0.70;;;0.50;;
2438;SDS011;14509;47.992;7.848;2023-11-19T07:05:16;0.83;;;0.53;;
2438;SDS011;14509;47.992;7.848;2023-11-19T07:07:19;0.50;;;0.40;;
2438;SDS011;14509;47.992;7.848;2023-11-19T07:09:24;0.50;;;0.30;;
2438;SDS011;14509;47.992;7.848;2023-11-19T07:11:29;0.50;;;0.40;;
2438;SDS011;14509;47.992;7.848;2023-11-19T07:13:31;1.13;;;0.30;;
2438;SDS011;14509;47.992;7.848;2023-11-19T07:15:34;0.50;;;0.30;;
2438;SDS011;14509;47.992;7.848;2023-11-19T07:17:36;0.50;;;0.40;;
2438;SDS011;14509;47.992;7.848;2023-11-19T07:19:40;2.40;;;0.30;;
2438;SDS011;14509;47.992;7.848;2023-11-19T07:21:49;0.60;;;0.50;;
2438;SDS011;14509;47.992;7.848;2023-11-19T07:23:54;0.50;;;0.40;;
2438;SDS011;14509;47.992;7.848;2023-11-19T07:25:57;0.80;;;0.40;;
2438;SDS011;14509;47.992;7.848;2023-11-19T07:27:59;1.53;;;1.10;;
2438;SDS011;14509;47.992;7.848;2023-11-19T07:30:15;0.50;;;0.40;;
2438;SDS011;14509;47.992;7.848;2023-11-19T07:32:19;1.07;;;0.53;;
2438;SDS011;14509;47.992;7.848;2023-11-19T07:34:34;1.07;;;0.63;;
2438;SDS011;14509;47.992;7.848;2023-11-19T07:36:41;0.80;;;0.40;;
2438;SDS011;14509;47.992;7.848;2023-11-19T07:38:45;1.07;;;0.50;;
2438;SDS011;14509;47.992;7.848;2023-11-19T07:40:54;1.27;;;0.40;;
2438;SDS011;14509;47.992;7.848;2023-11-19T07:42:58;0.50;;;0.30;;
2438;SDS011;14509;47.992;7.848;2023-11-19T07:45:18;0.80;;;0.40;;
2438;SDS011;14509;47.992;7.848;2023-11-19T07:47:22;0.80;;;0.40;;
2438;SDS011;14509;47.992;7.848;2023-11-19T07:49:26;0.50;;;0.30;;
2438;SDS011;14509;47.992;7.848;2023-11-19T07:51:32;0.60;;;0.40;;
2438;SDS011;14509;47.992;7.848;2023-11-19T07:53:37;0.70;;;0.37;;
2438;SDS011;14509;47.992;7.848;2023-11-19T07:55:42;0.50;;;0.40;;
2438;SDS011;14509;47.992;7.848;2023-11-19T07:57:47;0.60;;;0.30;;
2438;SDS011;14509;47.992;7.848;2023-11-19T07:59:50;2.10;;;0.47;;
2438;SDS011;14509;47.992;7.848;2023-11-19T08:01:57;1.13;;;0.50;;
2438;SDS011;14509;47.992;7.848;2023-11-19T08:04:11;0.50;;;0.30;;
2438;SDS011;14509;47.992;7.848;2023-11-19T08:06:14;3.23;;;0.60;;
2438;SDS011;14509;47.992;7.848;2023-11-19T08:08:19;0.80;;;0.60;;
2438;SDS011;14509;47.992;7.848;2023-11-19T08:10:40;0.50;;;0.30;;
2438;SDS011;14509;47.992;7.848;2023-11-19T08:12:44;1.23;;;1.13;;
2438;SDS011;14509;47.992;7.848;2023-11-19T08:14:48;0.63;;;0.40;;
2438;SDS011;14509;47.992;7.848;2023-11-19T08:17:07;2.30;;;0.40;;
2438;SDS011;14509;47.992;7.848;2023-11-19T08:19:44;0.50;;;0.40;;
2438;SDS011;14509;47.992;7.848;2023-11-19T21:21:58;3.27;;;1.23;;
2438;SDS011;14509;47.992;7.848;2023-11-19T21:24:00;1.97;;;0.80;;
2438;SDS011;14509;47.992;7.848;2023-11-19T21:26:02;1.33;;;1.00;;
2438;SDS011;14509;47.992;7.848;2023-11-19T21:28:05;1.00;;;0.90;;
2438;SDS011;14509;47.992;7.848;2023-11-19T21:30:09;1.03;;;0.93;;
2438;SDS011;14509;47.992;7.848;2023-11-19T21:32:11;1.17;;;1.07;;
2438;SDS011;14509;47.992;7.848;2023-11-19T21:34:12;1.20;;;1.10;;
2438;SDS011;14509;47.992;7.848;2023-11-19T21:36:16;6.30;;;1.27;;
2438;SDS011;14509;47.992;7.848;2023-11-19T21:38:18;2.33;;;0.73;;
2438;SDS011;14509;47.992;7.848;2023-11-19T21:40:21;1.60;;;0.77;;
2438;SDS011;14509;47.992;7.848;2023-11-19T21:42:23;1.57;;;0.97;;
2438;SDS011;14509;47.992;7.848;2023-11-19T21:44:25;0.80;;;0.60;;
2438;SDS011;14509;47.992;7.848;2023-11-19T21:46:27;1.73;;;0.70;;
2438;SDS011;14509;47.992;7.848;2023-11-19T21:48:30;2.63;;;0.80;;
2438;SDS011;14509;47.992;7.848;2023-11-19T21:50:32;0.80;;;0.60;;
2438;SDS011;14509;47.992;7.848;2023-11-19T21:52:35;1.60;;;1.00;;
2438;SDS011;14509;47.992;7.848;2023-11-19T21:54:37;2.03;;;1.00;;
2438;SDS011;14509;47.992;7.848;2023-11-19T21:56:40;3.13;;;1.00;;
2438;SDS011;14509;47.992;7.848;2023-11-19T21:58:42;2.50;;;1.03;;
2438;SDS011;14509;47.992;7.848;2023-11-19T22:00:44;0.90;;;0.80;;
2438;SDS011;14509;47.992;7.848;2023-11-19T22:02:45;1.57;;;0.63;;
2438;SDS011;14509;47.992;7.848;2023-11-19T22:04:47;1.73;;;1.03;;
2438;SDS011;14509;47.992;7.848;2023-11-19T22:06:51;3.13;;;0.97;;
2438;SDS011;14509;47.992;7.848;2023-11-19T22:08:55;0.80;;;0.80;;
2438;SDS011;14509;47.992;7.848;2023-11-19T22:10:57;1.40;;;1.13;;
2438;SDS011;14509;47.992;7.848;2023-11-19T22:12:59;1.90;;;0.87;;
2438;SDS011;14509;47.992;7.848;2023-11-19T22:15:01;1.63;;;0.87;;
2438;SDS011;14509;47.992;7.848;2023-11-19T22:17:03;0.97;;;0.83;;
2438;SDS011;14509;47.992;7.848;2023-11-19T22:19:05;2.07;;;1.13;;
2438;SDS011;14509;47.992;7.848;2023-11-19T22:21:08;1.30;;;1.10;;
2438;SDS011;14509;47.992;7.848;2023-11-19T22:23:10;4.17;;;0.90;;
2438;SDS011;14509;47.992;7.848;2023-11-19T22:25:14;0.80;;;0.70;;
2438;SDS011;14509;47.992;7.848;2023-11-19T22:27:16;1.23;;;0.70;;
2438;SDS011;14509;47.992;7.848;2023-11-19T22:29:18;1.30;;;0.83;;
2438;SDS011;14509;47.992;7.848;2023-11-19T22:31:20;2.07;;;1.20;;
2438;SDS011;14509;47.992;7.848;2023-11-19T22:33:21;2.60;;;1.07;;
2438;SDS011;14509;47.992;7.848;2023-11-19T22:35:23;3.77;;;0.70;;
2438;SDS011;14509;47.992;7.848;2023-11-19T22:37:26;1.63;;;0.80;;
2438;SDS011;14509;47.992;7.848;2023-11-19T22:39:28;1.40;;;0.83;;
2438;SDS011;14509;47.992;7.848;2023-11-19T22:41:31;1.50;;;1.10;;
2438;SDS011;14509;47.992;7.848;2023-11-19T22:43:34;2.40;;;1.10;;
2438;SDS011;14509;47.992;7.848;2023-11-19T22:45:35;1.40;;;1.00;;
2438;SDS011;14509;47.992;7.848;2023-11-19T22:47:37;1.60;;;0.77;;
2438;SDS011;14509;47.992;7.848;2023-11-19T22:49:39;1.33;;;0.97;;
2438;SDS011;14509;47.992;7.848;2023-11-19T22:51:40;1.80;;;0.90;;
2438;SDS011;14509;47.992;7.848;2023-11-19T22:53:42;2.20;;;1.00;;
2438;SDS011;14509;47.992;7.848;2023-11-19T22:55:43;2.13;;;1.10;;
2438;SDS011;14509;47.992;7.848;2023-11-19T22:57:46;2.77;;;1.00;;
2438;SDS011;14509;47.992;7.848;2023-11-19T22:59:49;3.20;;;0.80;;
2438;SDS011;14509;47.992;7.848;2023-11-19T23:01:51;2.30;;;0.90;;
2438;SDS011;14509;47.992;7.848;2023-11-19T23:03:53;2.67;;;1.33;;
2438;SDS011;14509;47.992;7.848;2023-11-19T23:05:55;1.10;;;0.90;;
2438;SDS011;14509;47.992;7.848;2023-11-19T23:07:57;2.73;;;0.93;;
2438;SDS011;14509;47.992;7.848;2023-11-19T23:10:00;2.33;;;0.77;;
2438;SDS011;14509;47.992;7.848;2023-11-19T23:12:02;1.73;;;1.17;;
2438;SDS011;14509;47.992;7.848;2023-11-19T23:14:06;1.90;;;0.93;;
2438;SDS011;14509;47.992;7.848;2023-11-19T23:16:10;2.20;;;1.17;;
2438;SDS011;14509;47.992;7.848;2023-11-19T23:18:13;1.93;;;0.90;;
2438;SDS011;14509;47.992;7.848;2023-11-19T23:20:15;1.33;;;0.80;;
2438;SDS011;14509;47.992;7.848;2023-11-19T23:22:17;1.50;;;0.90;;
2438;SDS011;14509;47.992;7.848;2023-11-19T23:24:19;1.60;;;1.10;;
2438;SDS011;14509;47.992;7.848;2023-11-19T23:26:21;2.07;;;1.37;;
2438;SDS011;14509;47.992;7.848;2023-11-19T23:28:23;2.07;;;1.30;;
2438;SDS011;14509;47.992;7.848;2023-11-19T23:30:26;1.40;;;1.27;;
2438;SDS011;14509;47.992;7.848;2023-11-19T23:32:28;1.03;;;0.70;;
2438;SDS011;14509;47.992;7.848;2023-11-19T23:34:31;1.00;;;0.90;;
2438;SDS011;14509;47.992;7.848;2023-11-19T23:36:33;4.73;;;1.50;;
2438;SDS011;14509;47.992;7.848;2023-11-19T23:38:35;1.57;;;0.77;;
2438;SDS011;14509;47.992;7.848;2023-11-19T23:40:37;2.37;;;0.83;;
2438;SDS011;14509;47.992;7.848;2023-11-19T23:42:39;1.07;;;0.83;;
2438;SDS011;14509;47.992;7.848;2023-11-19T23:44:42;1.43;;;0.80;;
2438;SDS011;14509;47.992;7.848;2023-11-19T23:46:44;1.90;;;0.77;;
2438;SDS011;14509;47.992;7.848;2023-11-19T23:48:46;1.57;;;1.00;;
2438;SDS011;14509;47.992;7.848;2023-11-19T23:50:49;2.50;;;1.40;;
2438;SDS011;14509;47.992;7.848;2023-11-19T23:52:53;2.23;;;0.90;;
2438;SDS011;14509;47.992;7.848;2023-11-19T23:54:55;1.77;;;1.27;;
2438;SDS011;14509;47.992;7.848;2023-11-19T23:56:58;4.03;;;1.47;;
2438;SDS011;14509;47.992;7.848;2023-11-19T23:58:59;5.63;;;1.20;;
